Terminal Aerodrome Forecast
Issued by NWS

Home | Current Version | Previous Version | Graphics & Text | Print | Product List | Glossary On
Versions: 1 2 3 4 5 6 7 8 9 10 11 12 13 14 15
000
FTUS43 KIWX 301430 AAA
TAFSBN
TAF AMD
KSBN 301430Z 3015/3112 19006KT P6SM VCSH SCT040 BKN080
      TEMPO 3015/3017 4SM -TSRA BR BKN040CB
     FM301800 27004KT P6SM SCT040 BKN100
     FM310800 VRB03KT 3SM BR SCT015 BKN100=

USA.gov is the U.S. government's official web portal to all federal, state and local government web resources and services.